Sunsites, Arizona
Current Conditions -  °F | °C
As of 11:56 AM on Saturday 25 Oct 2014 (Local Time) from KDUG Reporting Station
Clear Clear  
Wind Chill: 83°   Ceiling: Unl
Heat Index: 83°   Visibility: 10mi
Dew Point: 45°   Wind: 0mph
Humidity: 26%   Direction: NA
Pressure: 30.21"   Gusts: NA
Location:  31.9924°N, 109.696°W
Report Text: KDUG 251856Z AUTO 00000KT 10SM CLR 28/07 A3021 RMK AO2 SLP170 T02830072
Loading
Personal Weather Stations






























Interactive Weather Map
Tropical Storm Tracking
New forecast layout! Learn more

10-Day Weather Forecast

Advertisements
Track Severe Weather on mobile